Time;durP1;ratioP1;P1;durP2;ratioP2;P2;SDS_P1;SDS_P2;PMS_P1;PMS_P2;Temp;Humidity;BMP_temperature;BMP_pressure;BME280_temperature;BME280_humidity;BME280_pressure;Samples;Min_cycle;Max_cycle;Signal;HPM_P1;HPM_P2
2023/09/17 00:00:46;;;;;;;5.15;4.15;;;;;;;21.15;100.00;97872.31;5033152;28;20210;-73
2023/09/17 00:03:12;;;;;;;5.30;4.80;;;;;;;21.12;100.00;97886.41;5033084;28;20228;-73
2023/09/17 00:05:38;;;;;;;4.63;4.23;;;;;;;21.10;100.00;97888.59;5032823;28;20214;-73
2023/09/17 00:08:05;;;;;;;4.80;4.40;;;;;;;21.05;100.00;97880.56;5033341;28;20229;-73
2023/09/17 00:10:31;;;;;;;6.40;4.83;;;;;;;20.97;100.00;97886.59;5036239;28;20673;-73
2023/09/17 00:12:58;;;;;;;5.63;5.13;;;;;;;20.89;100.00;97884.53;5036455;28;20206;-73
2023/09/17 00:15:26;;;;;;;4.63;4.23;;;;;;;20.86;100.00;97890.50;5036340;28;20674;-73
2023/09/17 00:17:53;;;;;;;6.00;5.10;;;;;;;20.83;100.00;97899.97;5036541;28;20624;-73
2023/09/17 00:20:19;;;;;;;4.87;4.47;;;;;;;20.84;100.00;97892.69;5036504;28;20572;-73
2023/09/17 00:22:45;;;;;;;5.37;4.70;;;;;;;20.75;100.00;97894.41;5036173;28;20665;-73
2023/09/17 00:25:12;;;;;;;5.57;4.70;;;;;;;20.79;100.00;97884.66;5036305;28;20217;-73
2023/09/17 00:27:39;;;;;;;5.90;5.30;;;;;;;20.73;100.00;97886.59;5036602;28;20230;-73
2023/09/17 00:30:09;;;;;;;6.40;4.97;;;;;;;20.68;100.00;97888.53;5036423;28;20210;-73
2023/09/17 00:32:35;;;;;;;5.63;4.73;;;;;;;20.64;100.00;97892.91;5036358;28;20206;-73
2023/09/17 00:35:03;;;;;;;5.73;4.87;;;;;;;20.68;100.00;97889.34;5036297;28;20231;-73
2023/09/17 00:37:29;;;;;;;5.00;4.60;;;;;;;20.58;100.00;97875.94;5035932;28;20728;-73
2023/09/17 00:39:56;;;;;;;5.00;4.60;;;;;;;20.60;100.00;97875.66;5036349;28;20298;-73
2023/09/17 00:42:22;;;;;;;5.20;4.70;;;;;;;20.59;100.00;97877.56;5035720;28;20731;-73
2023/09/17 00:44:48;;;;;;;7.40;4.80;;;;;;;20.52;100.00;97879.00;5035937;28;20225;-73
2023/09/17 00:47:15;;;;;;;5.50;5.00;;;;;;;20.48;100.00;97886.84;5036091;28;20222;-73
2023/09/17 00:49:42;;;;;;;5.60;4.73;;;;;;;20.49;100.00;97884.97;5035800;28;20665;-73
2023/09/17 00:52:16;;;;;;;5.43;4.93;;;;;;;20.50;100.00;97891.97;5035643;28;20538;-73
2023/09/17 00:54:44;;;;;;;5.30;4.90;;;;;;;20.50;100.00;97886.56;5036098;28;20194;-73
2023/09/17 00:57:14;;;;;;;5.30;4.90;;;;;;;20.48;100.00;97891.47;5035801;28;20205;-73
2023/09/17 00:59:41;;;;;;;4.87;4.47;;;;;;;20.46;100.00;97882.84;5018456;28;20190;-73
2023/09/17 01:02:08;;;;;;;5.10;4.70;;;;;;;20.43;100.00;97883.44;5035781;28;20213;-73
2023/09/17 01:04:36;;;;;;;5.20;4.70;;;;;;;20.36;100.00;97875.66;5035656;28;20229;-73
2023/09/17 01:07:04;;;;;;;5.87;4.70;;;;;;;20.38;100.00;97876.16;5035632;28;20296;-73
2023/09/17 01:09:32;;;;;;;5.57;5.07;;;;;;;20.31;100.00;97881.13;5035688;28;20229;-73
2023/09/17 01:12:00;;;;;;;6.17;4.63;;;;;;;20.20;100.00;97884.16;5035579;28;20259;-73
2023/09/17 01:14:26;;;;;;;5.40;4.73;;;;;;;20.12;100.00;97888.28;5035621;28;20547;-73
2023/09/17 01:16:54;;;;;;;5.20;4.70;;;;;;;20.05;100.00;97895.88;5034980;28;20225;-73
2023/09/17 01:19:26;;;;;;;5.13;4.73;;;;;;;20.04;100.00;97896.16;5035718;28;20202;-73
2023/09/17 01:22:11;;;;;;;5.60;4.97;;;;;;;20.01;100.00;97897.53;5034130;28;20638;-73
2023/09/17 01:24:55;;;;;;;4.67;4.37;;;;;;;20.05;100.00;97890.50;5019562;28;20260;-73
2023/09/17 01:27:22;;;;;;;5.20;4.70;;;;;;;19.95;100.00;97895.16;5035056;28;20221;-73
2023/09/17 01:29:49;;;;;;;5.67;5.20;;;;;;;20.08;100.00;97900.72;5035184;28;20206;-73
2023/09/17 01:32:16;;;;;;;5.90;5.40;;;;;;;20.39;100.00;97906.69;5035050;28;20206;-73
2023/09/17 01:34:44;;;;;;;5.13;4.63;;;;;;;20.32;100.00;97895.41;5035168;28;20202;-73
2023/09/17 01:37:18;;;;;;;5.47;4.97;;;;;;;20.22;100.00;97890.09;5034829;28;20541;-73
2023/09/17 01:40:05;;;;;;;6.00;5.50;;;;;;;20.15;100.00;97889.63;5034742;28;20212;-73
2023/09/17 01:42:32;;;;;;;5.50;5.00;;;;;;;20.01;100.00;97904.81;5035277;28;20194;-73
2023/09/17 01:45:00;;;;;;;5.40;5.00;;;;;;;20.19;100.00;97902.28;5035871;28;20265;-73
2023/09/17 01:47:28;;;;;;;7.80;4.60;;;;;;;20.31;100.00;97899.19;5034527;28;20731;-73
2023/09/17 01:49:57;;;;;;;5.07;4.63;;;;;;;20.25;100.00;97914.63;5034588;28;20665;-73
2023/09/17 01:52:26;;;;;;;4.63;4.23;;;;;;;20.33;100.00;97915.91;5034958;28;20265;-73
2023/09/17 01:54:53;;;;;;;6.17;4.47;;;;;;;20.42;100.00;97912.31;5034562;28;20719;-73
2023/09/17 01:57:20;;;;;;;5.60;4.10;;;;;;;20.35;100.00;97917.22;5034633;28;20225;-73
2023/09/17 01:59:46;;;;;;;5.77;4.73;;;;;;;20.27;100.00;97914.34;5034477;28;20194;-73
2023/09/17 02:02:12;;;;;;;5.17;4.77;;;;;;;20.15;100.00;97916.59;5034737;28;20572;-73
2023/09/17 02:04:39;;;;;;;5.20;4.63;;;;;;;20.15;100.00;97909.31;5034865;28;20226;-73
2023/09/17 02:07:06;;;;;;;5.27;4.77;;;;;;;20.19;100.00;97914.94;5034564;28;20260;-73
2023/09/17 02:09:32;;;;;;;4.90;4.27;;;;;;;20.09;100.00;97918.56;5034861;28;20315;-73
2023/09/17 02:11:58;;;;;;;4.63;4.10;;;;;;;20.11;100.00;97915.59;5034460;28;20673;-73
2023/09/17 02:14:25;;;;;;;4.53;4.10;;;;;;;20.07;100.00;97909.09;5034206;28;20213;-73
2023/09/17 02:16:52;;;;;;;4.73;4.43;;;;;;;20.06;100.00;97911.00;5034984;28;20210;-73
2023/09/17 02:19:18;;;;;;;4.77;4.37;;;;;;;20.01;100.00;97904.81;5034271;28;20280;-73
2023/09/17 02:21:44;;;;;;;4.90;4.40;;;;;;;20.09;100.00;97910.47;5034387;28;20237;-73
2023/09/17 02:24:11;;;;;;;5.30;4.53;;;;;;;19.95;100.00;97911.34;5033951;28;20265;-73
2023/09/17 02:26:37;;;;;;;4.50;4.10;;;;;;;19.95;100.00;97908.66;5034253;28;20214;-73
2023/09/17 02:29:04;;;;;;;4.60;4.20;;;;;;;19.91;100.00;97908.41;5034125;28;20229;-73
2023/09/17 02:31:31;;;;;;;6.07;4.40;;;;;;;19.86;100.00;97915.75;5033865;28;20210;-73
2023/09/17 02:33:57;;;;;;;4.37;3.97;;;;;;;19.82;100.00;97910.09;5034105;28;20209;-73
2023/09/17 02:36:23;;;;;;;4.40;4.10;;;;;;;19.87;100.00;97907.38;5033973;28;20205;-73
2023/09/17 02:38:50;;;;;;;5.77;4.70;;;;;;;19.75;100.00;97906.91;5033526;28;20308;-73
2023/09/17 02:41:16;;;;;;;5.53;4.30;;;;;;;19.73;100.00;97906.41;5033967;28;20202;-73
2023/09/17 02:43:43;;;;;;;4.10;3.80;;;;;;;19.72;100.00;97907.50;5033928;28;20233;-73
2023/09/17 02:46:09;;;;;;;5.13;4.63;;;;;;;19.66;100.00;97903.19;5034003;28;20206;-73
2023/09/17 02:48:36;;;;;;;4.60;4.30;;;;;;;19.63;100.00;97902.97;5033870;28;20236;-73
2023/09/17 02:51:03;;;;;;;4.77;4.37;;;;;;;19.58;100.00;97901.91;5033610;28;20300;-73
2023/09/17 02:53:29;;;;;;;6.13;4.93;;;;;;;19.54;100.00;97908.16;5033831;28;20208;-73
2023/09/17 02:55:56;;;;;;;5.47;4.97;;;;;;;19.49;100.00;97910.84;5033808;28;20217;-73
2023/09/17 02:58:23;;;;;;;5.23;4.73;;;;;;;19.50;100.00;97907.88;5033351;28;20245;-73
2023/09/17 03:00:50;;;;;;;6.10;4.87;;;;;;;19.49;100.00;97908.97;5033743;28;20252;-73
2023/09/17 03:03:16;;;;;;;5.67;5.10;;;;;;;19.45;100.00;97912.53;5033371;28;20206;-73
2023/09/17 03:05:48;;;;;;;4.70;4.40;;;;;;;19.47;100.00;97907.63;5033582;28;20210;-73
2023/09/17 03:08:15;;;;;;;4.90;4.50;;;;;;;19.42;100.00;97916.56;5033289;28;20599;-73
2023/09/17 03:10:42;;;;;;;5.37;4.87;;;;;;;19.47;100.00;97918.44;5033571;28;20212;-73
2023/09/17 03:13:11;;;;;;;6.10;4.77;;;;;;;19.38;100.00;97917.41;5033854;28;20201;-73
2023/09/17 03:15:37;;;;;;;6.07;4.77;;;;;;;19.33;100.00;97920.94;5033616;28;20255;-73
2023/09/17 03:18:04;;;;;;;5.37;4.97;;;;;;;19.33;100.00;97914.75;5033384;28;20226;-73
2023/09/17 03:20:33;;;;;;;6.07;5.47;;;;;;;19.38;100.00;97920.09;5033457;28;20205;-73
2023/09/17 03:23:04;;;;;;;7.67;5.17;;;;;;;19.38;100.00;97920.09;5033150;28;20305;-73
2023/09/17 03:25:33;;;;;;;6.30;5.80;;;;;;;19.34;100.00;97919.84;5033363;28;20217;-73
2023/09/17 03:28:00;;;;;;;5.30;4.80;;;;;;;19.31;100.00;97920.41;5033272;28;20226;-73
2023/09/17 03:30:27;;;;;;;5.67;4.93;;;;;;;19.27;100.00;97915.84;5033166;28;20264;-73
2023/09/17 03:32:54;;;;;;;5.73;5.00;;;;;;;19.30;100.00;97921.50;5033387;28;20214;-73
2023/09/17 03:35:20;;;;;;;6.43;4.73;;;;;;;19.15;100.00;97920.72;5032906;28;20669;-73
2023/09/17 03:37:47;;;;;;;5.97;5.37;;;;;;;19.22;100.00;97916.66;5033164;28;20260;-73
2023/09/17 03:40:15;;;;;;;5.80;5.20;;;;;;;19.24;100.00;97921.78;5032836;28;20575;-73
2023/09/17 03:42:42;;;;;;;5.37;4.87;;;;;;;19.17;100.00;97930.16;5032672;28;20615;-73
2023/09/17 03:45:11;;;;;;;5.07;4.67;;;;;;;19.17;100.00;97926.63;5035868;28;20229;-73
2023/09/17 03:47:41;;;;;;;5.60;5.20;;;;;;;19.09;100.00;97925.31;5037016;28;20228;-73
2023/09/17 03:50:09;;;;;;;5.40;4.73;;;;;;;19.06;100.00;97925.88;5037160;28;20210;-73
2023/09/17 03:52:41;;;;;;;5.83;5.13;;;;;;;19.10;100.00;97924.22;5037060;28;20208;-73
2023/09/17 03:55:09;;;;;;;5.23;4.83;;;;;;;19.08;100.00;97926.41;5037064;28;20213;-73
2023/09/17 03:57:37;;;;;;;7.10;5.10;;;;;;;18.95;100.00;97921.59;5036859;28;20239;-73
2023/09/17 04:00:07;;;;;;;5.67;5.00;;;;;;;19.06;100.00;97925.06;5036714;28;20641;-73
2023/09/17 04:02:35;;;;;;;5.80;5.30;;;;;;;18.97;100.00;97929.41;5036974;28;20260;-73
2023/09/17 04:05:07;;;;;;;6.67;5.37;;;;;;;18.96;100.00;97920.53;5036815;28;20316;-73
2023/09/17 04:07:33;;;;;;;6.20;5.60;;;;;;;18.97;100.00;97911.38;5036473;28;20705;-73
2023/09/17 04:10:00;;;;;;;5.93;5.33;;;;;;;18.96;100.00;97917.03;5036788;28;20209;-73
2023/09/17 04:12:26;;;;;;;5.53;5.03;;;;;;;18.90;100.00;97916.25;5036817;28;20206;-73
2023/09/17 04:14:53;;;;;;;5.50;5.00;;;;;;;18.91;100.00;97911.66;5036587;28;20202;-73
2023/09/17 04:17:20;;;;;;;5.53;5.03;;;;;;;18.91;100.00;97908.97;5036526;28;20561;-73
2023/09/17 04:19:46;;;;;;;6.13;5.53;;;;;;;18.92;100.00;97897.13;5036307;28;20691;-73
2023/09/17 04:22:13;;;;;;;5.80;5.30;;;;;;;18.90;100.00;97900.06;5037230;28;20545;-73
2023/09/17 04:24:39;;;;;;;5.77;5.27;;;;;;;18.95;100.00;97901.97;5036391;28;20226;-73
2023/09/17 04:27:05;;;;;;;5.83;5.33;;;;;;;18.90;100.00;97901.94;5036769;28;20618;-73
2023/09/17 04:29:32;;;;;;;6.07;5.53;;;;;;;18.94;100.00;97909.22;5036477;28;20312;-73
2023/09/17 04:31:58;;;;;;;6.17;5.67;;;;;;;18.88;100.00;97907.66;5036265;28;20213;-73
2023/09/17 04:34:25;;;;;;;5.37;4.97;;;;;;;18.88;100.00;97907.66;5037068;28;20198;-73
2023/09/17 04:36:52;;;;;;;6.47;5.13;;;;;;;18.83;100.00;97918.41;5036790;28;20216;-73
2023/09/17 04:39:18;;;;;;;5.90;4.83;;;;;;;18.76;100.00;97920.59;5037196;28;20419;-73
2023/09/17 04:41:45;;;;;;;5.80;5.23;;;;;;;18.77;100.00;97919.50;5036410;28;20202;-73
2023/09/17 04:44:12;;;;;;;5.43;5.03;;;;;;;18.79;100.00;97927.31;5036082;28;20222;-73
2023/09/17 04:46:40;;;;;;;8.00;5.90;;;;;;;18.80;100.00;97924.38;5035869;28;20214;-73
2023/09/17 04:49:07;;;;;;;6.00;5.50;;;;;;;18.80;100.00;97924.38;5035640;28;20775;-73
2023/09/17 04:51:35;;;;;;;6.23;5.63;;;;;;;18.80;100.00;97926.25;5035975;28;20206;-73
2023/09/17 04:54:02;;;;;;;5.70;5.27;;;;;;;18.76;100.00;97925.16;5036012;28;20205;-73
2023/09/17 04:56:29;;;;;;;5.80;5.30;;;;;;;18.86;100.00;97925.94;5035808;28;20213;-73
2023/09/17 04:58:55;;;;;;;6.43;5.93;;;;;;;18.94;100.00;97932.66;5035718;28;20244;-73
2023/09/17 05:01:22;;;;;;;6.40;5.90;;;;;;;18.87;100.00;97934.84;5035960;28;20206;-73
2023/09/17 05:03:48;;;;;;;11.10;5.93;;;;;;;18.89;100.00;97940.75;5036068;28;20213;-73
2023/09/17 05:06:14;;;;;;;6.03;5.53;;;;;;;18.92;100.00;97940.22;5035770;28;20210;-73
2023/09/17 05:08:42;;;;;;;6.23;5.73;;;;;;;18.84;100.00;97938.91;5035645;28;20249;-73
2023/09/17 05:11:08;;;;;;;6.00;5.50;;;;;;;18.80;100.00;97943.22;5035672;28;20202;-73
2023/09/17 05:13:34;;;;;;;5.60;5.10;;;;;;;18.78;100.00;97945.34;5035629;28;20205;-73
2023/09/17 05:16:01;;;;;;;7.00;5.60;;;;;;;18.76;100.00;97946.72;5035544;28;20201;-73
2023/09/17 05:18:27;;;;;;;6.00;5.33;;;;;;;18.79;100.00;97947.00;5035481;28;20226;-73
2023/09/17 05:20:55;;;;;;;6.23;5.73;;;;;;;18.98;100.00;97947.19;5035382;28;20206;-73
2023/09/17 05:23:22;;;;;;;6.60;6.00;;;;;;;18.98;100.00;97953.41;5035518;28;20548;-73
2023/09/17 05:25:49;;;;;;;7.00;6.20;;;;;;;18.98;100.00;97956.09;5035335;28;20229;-73
2023/09/17 05:28:15;;;;;;;5.87;5.37;;;;;;;18.98;100.00;97949.88;5035110;28;20233;-73
2023/09/17 05:30:42;;;;;;;5.90;5.30;;;;;;;18.98;100.00;97955.28;5035321;28;20221;-73
2023/09/17 05:33:09;;;;;;;6.00;5.53;;;;;;;19.01;100.00;97969.00;5035281;28;20285;-73
2023/09/17 05:35:36;;;;;;;5.40;4.90;;;;;;;19.05;100.00;97969.28;5035179;28;20206;-73
2023/09/17 05:38:04;;;;;;;5.47;5.03;;;;;;;19.04;100.00;97970.34;5034996;28;20226;-73
2023/09/17 05:40:30;;;;;;;5.80;5.30;;;;;;;19.11;100.00;97977.06;5035122;28;20212;-73
2023/09/17 05:42:59;;;;;;;5.70;5.20;;;;;;;19.16;100.00;97974.34;5035002;28;20202;-73
2023/09/17 05:45:27;;;;;;;6.53;5.27;;;;;;;19.17;100.00;97975.97;5035031;28;20226;-73
2023/09/17 05:47:53;;;;;;;6.30;5.73;;;;;;;19.20;100.00;97975.41;5034970;28;20233;-73
2023/09/17 05:50:20;;;;;;;5.73;5.23;;;;;;;19.29;100.00;97975.66;5035027;28;20622;-73
2023/09/17 05:52:46;;;;;;;6.17;5.67;;;;;;;19.33;100.00;97976.75;5034979;28;20202;-73
2023/09/17 05:55:12;;;;;;;6.70;5.80;;;;;;;19.27;100.00;97978.63;5034972;28;20209;-73
2023/09/17 05:57:39;;;;;;;6.13;5.53;;;;;;;19.33;100.00;97976.75;5034508;28;20237;-73
2023/09/17 06:00:07;;;;;;;8.20;5.80;;;;;;;19.34;100.00;97979.16;5033972;28;20194;-73
2023/09/17 06:02:34;;;;;;;6.37;5.77;;;;;;;19.40;100.00;97978.03;5033862;28;20260;-73
2023/09/17 06:05:00;;;;;;;6.20;5.60;;;;;;;19.43;100.00;97980.19;5033854;28;20234;-73
2023/09/17 06:07:26;;;;;;;5.83;5.30;;;;;;;19.51;100.00;97979.59;5032831;28;20222;-73
2023/09/17 06:09:53;;;;;;;6.40;5.60;;;;;;;19.55;100.00;97980.66;5033334;28;20670;-73
2023/09/17 06:12:19;;;;;;;6.93;5.67;;;;;;;19.66;100.00;97989.50;5033347;28;20217;-73
2023/09/17 06:14:46;;;;;;;6.03;5.53;;;;;;;19.77;100.00;97984.88;5033310;28;20630;-73
2023/09/17 06:17:12;;;;;;;5.40;4.90;;;;;;;19.96;100.00;97983.94;5033513;28;20272;-73
2023/09/17 06:19:38;;;;;;;5.73;5.17;;;;;;;19.96;100.00;97983.13;5033565;28;20210;-73
2023/09/17 06:22:05;;;;;;;6.67;5.90;;;;;;;19.90;100.00;97985.03;5034349;28;20206;-73
2023/09/17 06:24:31;;;;;;;5.80;5.40;;;;;;;19.85;100.00;97982.38;5033490;28;20221;-73
2023/09/17 06:26:57;;;;;;;6.10;5.60;;;;;;;19.82;100.00;97974.03;5033381;28;20205;-73
2023/09/17 06:29:24;;;;;;;6.07;5.60;;;;;;;19.71;100.00;97976.00;5033373;28;20209;-73
2023/09/17 06:31:51;;;;;;;6.07;5.57;;;;;;;19.77;100.00;97978.38;5033295;28;20212;-73
2023/09/17 06:34:17;;;;;;;5.67;5.17;;;;;;;19.78;100.00;97984.59;5034075;28;20220;-73
2023/09/17 06:36:44;;;;;;;5.90;5.40;;;;;;;19.82;100.00;97987.53;5033348;28;20661;-73
2023/09/17 06:39:10;;;;;;;6.33;5.37;;;;;;;19.81;100.00;97989.41;5034217;28;20233;-73
2023/09/17 06:41:37;;;;;;;6.50;5.90;;;;;;;19.77;100.00;97988.38;5033917;28;20259;-73
2023/09/17 06:44:03;;;;;;;5.97;5.47;;;;;;;19.80;100.00;97987.00;5034668;28;20213;-73
2023/09/17 06:46:30;;;;;;;5.80;5.23;;;;;;;19.83;100.00;97981.03;5033769;28;20232;-73
2023/09/17 06:48:56;;;;;;;5.57;5.07;;;;;;;19.94;100.00;97979.91;5033691;28;20316;-73
2023/09/17 06:51:23;;;;;;;5.80;5.30;;;;;;;19.96;100.00;97983.94;5034685;28;20202;-73
2023/09/17 06:53:49;;;;;;;5.50;5.07;;;;;;;20.05;100.00;97986.84;5032820;28;20224;-73
2023/09/17 06:56:16;;;;;;;6.63;5.50;;;;;;;20.12;100.00;97988.16;5033830;28;20204;-73
2023/09/17 06:58:43;;;;;;;5.70;5.20;;;;;;;20.24;100.00;97987.78;4994774;28;1121180;-73
2023/09/17 07:01:10;;;;;;;5.37;4.87;;;;;;;20.35;100.00;97986.66;5033549;28;20210;-73
2023/09/17 07:03:36;;;;;;;6.10;4.87;;;;;;;20.26;100.00;97991.81;5033692;28;20206;-73
2023/09/17 07:06:02;;;;;;;5.30;4.87;;;;;;;20.34;100.00;97995.84;5033710;28;20229;-73
2023/09/17 07:08:29;;;;;;;4.90;4.40;;;;;;;20.45;100.00;97995.47;5033508;28;20232;-73
2023/09/17 07:10:55;;;;;;;5.10;4.70;;;;;;;20.77;100.00;97995.72;5033471;28;20633;-73
2023/09/17 07:13:21;;;;;;;5.03;4.43;;;;;;;20.73;100.00;97988.44;5033299;28;20213;-73
2023/09/17 07:15:48;;;;;;;5.50;4.87;;;;;;;20.92;100.00;97989.34;5033226;28;20209;-73
2023/09/17 07:18:15;;;;;;;5.73;4.70;;;;;;;21.03;100.00;97996.28;5032620;28;20241;-73
2023/09/17 07:20:42;;;;;;;7.63;5.27;;;;;;;20.92;100.00;97978.53;5032861;28;20210;-73
2023/09/17 07:23:08;;;;;;;4.90;4.53;;;;;;;20.83;100.00;97982.94;5033290;28;20209;-73
2023/09/17 07:25:35;;;;;;;5.37;4.87;;;;;;;20.84;100.00;97984.56;5033211;28;20268;-73
2023/09/17 07:28:07;;;;;;;5.27;4.87;;;;;;;20.90;100.00;97986.13;5033268;28;20234;-73
2023/09/17 07:30:35;;;;;;;5.33;4.63;;;;;;;20.97;100.00;97998.22;5033461;28;20191;-73
2023/09/17 07:33:05;;;;;;;7.73;5.00;;;;;;;20.98;100.00;97999.03;5033258;28;20206;-73
2023/09/17 07:35:35;;;;;;;5.10;4.60;;;;;;;21.04;100.00;98003.28;5033352;28;20197;-73
2023/09/17 07:38:02;;;;;;;6.50;5.20;;;;;;;21.06;100.00;98003.78;5033208;28;20222;-73
2023/09/17 07:40:28;;;;;;;5.37;4.87;;;;;;;21.17;100.00;98006.13;5033015;28;20209;-73
2023/09/17 07:42:54;;;;;;;4.70;4.30;;;;;;;21.36;100.00;98004.28;5033234;28;20206;-73
2023/09/17 07:45:21;;;;;;;4.80;4.27;;;;;;;21.35;100.00;98009.97;5033025;28;20230;-73
2023/09/17 07:47:47;;;;;;;7.33;4.40;;;;;;;21.36;100.00;98011.56;5033272;28;20230;-73
2023/09/17 07:50:13;;;;;;;4.87;4.47;;;;;;;21.30;100.00;98021.63;5033176;28;20209;-73
2023/09/17 07:52:41;;;;;;;5.20;4.73;;;;;;;21.32;100.00;98018.66;5033118;28;20206;-73
2023/09/17 07:55:08;;;;;;;5.37;4.40;;;;;;;21.46;100.00;98023.09;5033080;28;20202;-73
2023/09/17 07:57:35;;;;;;;5.37;4.87;;;;;;;21.63;100.00;98026.13;5032674;28;20233;-73
2023/09/17 08:00:02;;;;;;;4.70;4.37;;;;;;;21.62;100.00;98027.19;5033341;28;20197;-73
2023/09/17 08:02:29;;;;;;;4.90;4.50;;;;;;;21.52;100.00;98030.03;5033011;28;20256;-73
2023/09/17 08:04:55;;;;;;;4.80;4.35;;;;;;;21.54;100.00;98024.34;5033032;28;20222;-73
2023/09/17 08:07:22;;;;;;;5.00;4.57;;;;;;;21.74;100.00;98018.69;5032947;28;20222;-73
2023/09/17 08:09:48;;;;;;;5.50;5.00;;;;;;;21.70;100.00;98021.16;5015324;28;20202;-73
2023/09/17 08:12:15;;;;;;;6.00;4.53;;;;;;;21.78;100.00;98022.41;5032873;28;20209;-73
2023/09/17 08:14:48;;;;;;;6.00;4.90;;;;;;;21.94;100.00;98027.38;5032850;28;20206;-73
2023/09/17 08:17:14;;;;;;;6.55;4.60;;;;;;;22.00;100.00;98025.38;5032786;28;20314;-73
2023/09/17 08:19:41;;;;;;;4.85;4.53;;;;;;;22.12;100.00;98029.22;5032819;28;20206;-73
2023/09/17 08:22:07;;;;;;;5.20;4.73;;;;;;;22.40;100.00;98024.75;5031830;28;20217;-73
2023/09/17 08:24:33;;;;;;;4.68;4.28;;;;;;;22.47;100.00;98033.34;5032546;28;20201;-73
2023/09/17 08:27:00;;;;;;;4.97;4.55;;;;;;;22.44;100.00;98031.19;5032486;28;20226;-73
2023/09/17 08:29:26;;;;;;;5.00;4.60;;;;;;;22.40;100.00;98032.88;5032683;28;20210;-73
2023/09/17 08:31:53;;;;;;;4.68;4.28;;;;;;;22.53;100.00;98035.69;5036312;28;20210;-73
2023/09/17 08:34:20;;;;;;;4.43;4.03;;;;;;;22.53;100.00;98038.41;5036265;28;20205;-73
2023/09/17 08:36:46;;;;;;;5.20;4.72;;;;;;;22.71;100.00;98037.53;5036213;28;20216;-73
2023/09/17 08:39:12;;;;;;;4.65;4.22;;;;;;;22.93;100.00;98032.28;5036035;28;20230;-73
2023/09/17 08:41:40;;;;;;;4.80;4.30;;;;;;;23.06;100.00;98030.69;5035937;28;20206;-73
2023/09/17 08:44:07;;;;;;;4.00;3.70;;;;;;;23.03;100.00;98031.28;5035977;28;20210;-73
2023/09/17 08:46:33;;;;;;;4.10;3.70;;;;;;;23.17;100.00;98040.25;5035846;28;20244;-73
2023/09/17 08:49:01;;;;;;;4.18;3.90;;;;;;;23.29;100.00;98035.97;5035738;28;20772;-73
2023/09/17 08:51:32;;;;;;;5.20;4.07;;;;;;;23.42;100.00;98034.38;5036039;28;20245;-73
2023/09/17 08:54:25;;;;;;;4.40;4.00;;;;;;;23.49;100.00;98037.47;5035904;28;20281;-73
2023/09/17 08:56:53;;;;;;;6.25;4.47;;;;;;;23.45;100.00;98031.84;5035875;28;20202;-73
2023/09/17 08:59:29;;;;;;;6.38;4.10;;;;;;;23.49;100.00;98038.28;5035611;28;20218;-73
2023/09/17 09:01:57;;;;;;;4.75;4.35;;;;;;;23.81;100.00;98037.34;5035761;28;20206;-73
2023/09/17 09:04:25;;;;;;;4.63;4.22;;;;;;;23.85;100.00;98035.63;5035413;28;20206;-73
2023/09/17 09:06:52;;;;;;;5.05;4.20;;;;;;;23.98;100.00;98029.41;5035739;28;20241;-73
2023/09/17 09:09:21;;;;;;;6.60;4.32;;;;;;;24.18;100.00;98029.75;5035555;28;20279;-73
2023/09/17 09:11:48;;;;;;;4.50;4.13;;;;;;;24.27;100.00;98016.22;5035467;28;20214;-73
2023/09/17 09:14:15;;;;;;;3.97;3.58;;;;;;;24.41;100.00;98023.22;5035331;28;20206;-73
2023/09/17 09:16:44;;;;;;;5.63;5.03;;;;;;;24.37;100.00;98024.16;5035520;28;20233;-73
2023/09/17 09:19:11;;;;;;;4.75;4.13;;;;;;;24.64;100.00;98026.75;5035157;28;20232;-73
2023/09/17 09:21:37;;;;;;;4.13;3.65;;;;;;;24.86;98.54;98022.13;5035227;28;20210;-73
2023/09/17 09:24:03;;;;;;;4.63;3.88;;;;;;;25.08;97.58;98021.28;5035135;28;20208;-73
2023/09/17 09:26:40;;;;;;;5.25;3.80;;;;;;;25.19;96.69;98025.34;5034562;28;20668;-73
2023/09/17 09:29:08;;;;;;;4.50;3.88;;;;;;;25.37;95.18;98025.13;5035168;28;20232;-73
2023/09/17 09:31:35;;;;;;;4.45;3.53;;;;;;;25.55;93.56;98015.09;5035173;28;20209;-73
2023/09/17 09:34:03;;;;;;;5.82;3.30;;;;;;;25.88;87.52;98017.06;5017646;28;20221;-73
2023/09/17 09:36:32;;;;;;;5.35;3.15;;;;;;;25.81;83.80;98013.22;5035016;28;20210;-73
2023/09/17 09:38:59;;;;;;;6.93;3.13;;;;;;;25.82;86.58;98009.41;5034918;28;20310;-73
2023/09/17 09:41:25;;;;;;;3.22;2.90;;;;;;;26.00;86.62;98003.66;5033937;28;20206;-73
2023/09/17 09:43:56;;;;;;;4.65;2.75;;;;;;;26.30;83.51;98004.63;5034563;28;20676;-73
2023/09/17 09:46:24;;;;;;;7.20;3.25;;;;;;;26.34;82.55;98002.88;5034618;28;20568;-73
2023/09/17 09:48:51;;;;;;;7.18;3.00;;;;;;;26.27;84.20;98000.63;5034493;28;20234;-73
2023/09/17 09:51:21;;;;;;;5.10;3.38;;;;;;;26.37;85.81;97996.78;5034774;28;20256;-73
2023/09/17 09:53:48;;;;;;;6.15;3.15;;;;;;;26.58;85.49;97993.09;5034418;28;20545;-73
2023/09/17 09:56:15;;;;;;;5.30;3.28;;;;;;;26.80;84.49;97995.63;5034580;28;20284;-73
2023/09/17 09:58:42;;;;;;;4.95;3.50;;;;;;;26.86;83.12;97991.59;5034236;28;20237;-73
2023/09/17 10:01:08;;;;;;;5.72;3.50;;;;;;;26.98;81.45;97992.84;5034602;28;20292;-73
2023/09/17 10:03:35;;;;;;;6.65;3.45;;;;;;;27.01;81.53;97982.88;5034512;28;20571;-73
2023/09/17 10:06:07;;;;;;;6.28;3.42;;;;;;;27.00;82.33;97969.56;5034363;28;20230;-73
2023/09/17 10:08:35;;;;;;;5.22;3.75;;;;;;;27.08;80.98;97976.91;5016830;28;20233;-73
2023/09/17 10:11:03;;;;;;;6.72;4.57;;;;;;;27.04;82.27;97971.31;5035585;28;20209;-73
2023/09/17 10:13:29;;;;;;;4.70;3.15;;;;;;;26.55;81.27;97973.84;5034117;28;20665;-73
2023/09/17 10:15:56;;;;;;;4.07;3.10;;;;;;;26.79;81.05;97964.03;5034273;28;20198;-73
2023/09/17 10:18:26;;;;;;;5.75;3.50;;;;;;;27.05;80.71;97964.72;5034461;28;20230;-73
2023/09/17 10:20:53;;;;;;;3.33;3.03;;;;;;;27.01;75.88;97961.03;5034337;28;20249;-73
2023/09/17 10:23:20;;;;;;;3.33;2.72;;;;;;;27.27;69.43;97971.09;5034177;28;20212;-73
2023/09/17 10:25:49;;;;;;;4.35;3.00;;;;;;;27.38;67.64;97956.72;5033904;28;20660;-73
2023/09/17 10:28:16;;;;;;;6.70;3.08;;;;;;;27.28;67.98;97950.84;5034365;28;20228;-73
2023/09/17 10:30:45;;;;;;;7.00;3.40;;;;;;;27.51;63.92;97957.63;5034172;28;20259;-73
2023/09/17 10:33:13;;;;;;;7.10;3.20;;;;;;;27.53;64.58;97956.16;5033973;28;20209;-73
2023/09/17 10:35:40;;;;;;;4.57;3.08;;;;;;;27.38;63.76;97955.91;5033908;28;20216;-73
2023/09/17 10:38:09;;;;;;;4.32;2.80;;;;;;;27.35;64.36;97948.41;5033404;28;20680;-73
2023/09/17 10:40:35;;;;;;;6.68;2.90;;;;;;;27.44;63.06;97944.47;5033675;28;20631;-73
2023/09/17 10:43:04;;;;;;;6.72;2.92;;;;;;;27.19;61.48;97958.28;5033823;28;20205;-73
2023/09/17 10:45:34;;;;;;;3.28;2.78;;;;;;;27.45;59.45;97948.81;5033688;28;20209;-73
2023/09/17 10:48:03;;;;;;;5.45;2.80;;;;;;;27.45;57.67;97943.34;5016380;28;20232;-73
2023/09/17 10:50:32;;;;;;;4.93;2.78;;;;;;;27.60;58.30;97934.59;5033539;28;20240;-73
2023/09/17 10:52:58;;;;;;;7.78;2.90;;;;;;;27.73;57.23;97936.28;5033392;28;20213;-73
2023/09/17 10:55:27;;;;;;;5.57;2.83;;;;;;;27.80;57.48;97933.84;5033680;28;20212;-73
2023/09/17 10:58:07;;;;;;;4.38;2.97;;;;;;;27.89;55.66;97931.06;5033366;28;20233;-73
2023/09/17 11:00:35;;;;;;;8.15;3.38;;;;;;;27.77;55.10;97929.03;5033467;28;20208;-73
2023/09/17 11:03:04;;;;;;;6.80;2.55;;;;;;;27.82;55.10;97925.31;5033256;28;20229;-73
2023/09/17 11:05:32;;;;;;;4.07;2.67;;;;;;;27.94;55.45;97928.13;5033261;28;20209;-73
2023/09/17 11:08:03;;;;;;;5.53;3.08;;;;;;;27.81;56.84;97919.03;5031895;28;20423;-73
2023/09/17 11:10:30;;;;;;;4.88;2.97;;;;;;;27.77;56.25;97925.47;5016640;28;20190;-73
2023/09/17 11:12:57;;;;;;;5.57;2.70;;;;;;;27.98;54.97;97918.13;5033443;28;20213;-73
2023/09/17 11:15:23;;;;;;;6.63;3.10;;;;;;;27.72;53.82;97925.69;5033342;28;20218;-73
2023/09/17 11:17:51;;;;;;;7.03;2.55;;;;;;;27.88;52.74;97922.03;5032634;28;20226;-73
2023/09/17 11:20:21;;;;;;;7.50;2.85;;;;;;;27.91;53.81;97932.31;5033288;28;20628;-73
2023/09/17 11:22:51;;;;;;;5.35;2.92;;;;;;;28.04;52.30;97925.78;5032896;28;20220;-73
2023/09/17 11:25:35;;;;;;;3.90;2.60;;;;;;;28.04;52.57;97917.59;5032806;28;20201;-73
2023/09/17 11:28:12;;;;;;;4.93;2.30;;;;;;;28.06;51.65;97922.69;5032694;28;20304;-73